sensor_id;sensor_type;location;lat;lon;timestamp;pressure;altitude;pressure_sealevel;temperature;humidity
68580;BME280;55555;52.136;5.424;2022-07-06T00:00:24;102652.91;;;11.60;74.96
68580;BME280;55555;52.136;5.424;2022-07-06T00:02:51;102653.25;;;11.57;74.88
68580;BME280;55555;52.136;5.424;2022-07-06T00:05:18;102646.66;;;11.60;75.06
68580;BME280;55555;52.136;5.424;2022-07-06T00:07:45;102647.16;;;11.64;74.11
68580;BME280;55555;52.136;5.424;2022-07-06T00:10:12;102648.88;;;11.56;74.61
68580;BME280;55555;52.136;5.424;2022-07-06T00:12:39;102649.91;;;11.55;74.71
68580;BME280;55555;52.136;5.424;2022-07-06T00:15:07;102653.13;;;11.51;74.71
68580;BME280;55555;52.136;5.424;2022-07-06T00:17:34;102650.59;;;11.49;75.27
68580;BME280;55555;52.136;5.424;2022-07-06T00:20:01;102648.94;;;11.48;75.33
68580;BME280;55555;52.136;5.424;2022-07-06T00:22:28;102651.34;;;11.43;75.12
68580;BME280;55555;52.136;5.424;2022-07-06T00:24:55;102649.28;;;11.45;75.18
68580;BME280;55555;52.136;5.424;2022-07-06T00:27:22;102648.25;;;11.46;75.32
68580;BME280;55555;52.136;5.424;2022-07-06T00:29:49;102641.19;;;11.45;75.19
68580;BME280;55555;52.136;5.424;2022-07-06T00:32:16;102644.78;;;11.38;76.64
68580;BME280;55555;52.136;5.424;2022-07-06T00:34:43;102637.72;;;11.37;76.06
68580;BME280;55555;52.136;5.424;2022-07-06T00:37:10;102641.25;;;11.37;76.13
68580;BME280;55555;52.136;5.424;2022-07-06T00:39:37;102636.69;;;11.38;75.64
68580;BME280;55555;52.136;5.424;2022-07-06T00:42:04;102627.94;;;11.36;76.00
68580;BME280;55555;52.136;5.424;2022-07-06T00:44:31;102637.03;;;11.35;75.41
68580;BME280;55555;52.136;5.424;2022-07-06T00:46:59;102641.59;;;11.34;75.70
68580;BME280;55555;52.136;5.424;2022-07-06T00:49:26;102631.00;;;11.24;76.30
68580;BME280;55555;52.136;5.424;2022-07-06T00:52:12;102636.06;;;11.27;76.06
68580;BME280;55555;52.136;5.424;2022-07-06T00:54:41;102636.91;;;11.28;75.79
68580;BME280;55555;52.136;5.424;2022-07-06T00:57:09;102637.59;;;11.22;76.49
68580;BME280;55555;52.136;5.424;2022-07-06T00:59:36;102636.59;;;11.23;76.30
68580;BME280;55555;52.136;5.424;2022-07-06T01:02:03;102636.91;;;11.28;76.04
68580;BME280;55555;52.136;5.424;2022-07-06T01:04:30;102643.66;;;11.24;76.03
68580;BME280;55555;52.136;5.424;2022-07-06T01:06:58;102642.00;;;11.15;76.50
68580;BME280;55555;52.136;5.424;2022-07-06T01:09:25;102649.09;;;11.16;76.44
68580;BME280;55555;52.136;5.424;2022-07-06T01:11:52;102655.84;;;11.12;76.44
68580;BME280;55555;52.136;5.424;2022-07-06T01:14:20;102652.81;;;11.15;76.20
68580;BME280;55555;52.136;5.424;2022-07-06T01:16:48;102652.97;;;11.13;76.23
68580;BME280;55555;52.136;5.424;2022-07-06T01:19:15;102654.16;;;11.11;76.54
68580;BME280;55555;52.136;5.424;2022-07-06T01:21:42;102643.72;;;11.08;76.78
68580;BME280;55555;52.136;5.424;2022-07-06T01:24:10;102661.28;;;11.04;76.88
68580;BME280;55555;52.136;5.424;2022-07-06T01:26:37;102649.78;;;11.10;76.03
68580;BME280;55555;52.136;5.424;2022-07-06T01:29:04;102652.16;;;11.05;77.27
68580;BME280;55555;52.136;5.424;2022-07-06T01:31:31;102649.28;;;11.06;76.71
68580;BME280;55555;52.136;5.424;2022-07-06T01:33:58;102641.72;;;11.02;76.43
68580;BME280;55555;52.136;5.424;2022-07-06T01:36:26;102647.47;;;10.99;76.69
68580;BME280;55555;52.136;5.424;2022-07-06T01:38:55;102639.88;;;11.02;76.99
68580;BME280;55555;52.136;5.424;2022-07-06T01:41:25;102630.97;;;10.93;77.33
68580;BME280;55555;52.136;5.424;2022-07-06T01:43:52;102634.66;;;11.01;76.94
68580;BME280;55555;52.136;5.424;2022-07-06T01:46:19;102626.72;;;10.99;76.79
68580;BME280;55555;52.136;5.424;2022-07-06T01:48:47;102635.34;;;10.94;77.03
68580;BME280;55555;52.136;5.424;2022-07-06T01:51:14;102626.56;;;10.92;77.26
68580;BME280;55555;52.136;5.424;2022-07-06T01:53:41;102632.81;;;10.93;77.28
68580;BME280;55555;52.136;5.424;2022-07-06T01:56:09;102635.72;;;10.91;77.14
68580;BME280;55555;52.136;5.424;2022-07-06T01:58:38;102631.13;;;10.92;76.84
68580;BME280;55555;52.136;5.424;2022-07-06T02:01:10;102625.28;;;10.88;76.75
68580;BME280;55555;52.136;5.424;2022-07-06T02:03:38;102641.13;;;10.83;76.84
68580;BME280;55555;52.136;5.424;2022-07-06T02:06:06;102630.00;;;10.78;77.81
68580;BME280;55555;52.136;5.424;2022-07-06T02:08:34;102630.38;;;10.75;77.55
68580;BME280;55555;52.136;5.424;2022-07-06T02:11:03;102631.19;;;10.76;77.46
68580;BME280;55555;52.136;5.424;2022-07-06T02:13:31;102634.91;;;10.75;77.31
68580;BME280;55555;52.136;5.424;2022-07-06T02:15:58;102633.41;;;10.72;77.41
68580;BME280;55555;52.136;5.424;2022-07-06T02:18:26;102632.72;;;10.70;77.63
68580;BME280;55555;52.136;5.424;2022-07-06T02:20:53;102640.66;;;10.72;77.38
68580;BME280;55555;52.136;5.424;2022-07-06T02:23:20;102634.41;;;10.71;77.27
68580;BME280;55555;52.136;5.424;2022-07-06T02:25:48;102629.03;;;10.71;77.52
68580;BME280;55555;52.136;5.424;2022-07-06T02:28:15;102630.72;;;10.72;78.11
68580;BME280;55555;52.136;5.424;2022-07-06T02:30:42;102636.94;;;10.73;77.96
68580;BME280;55555;52.136;5.424;2022-07-06T02:33:09;102630.38;;;10.75;77.53
68580;BME280;55555;52.136;5.424;2022-07-06T02:35:36;102626.81;;;10.75;77.78
68580;BME280;55555;52.136;5.424;2022-07-06T02:38:08;102631.19;;;10.76;77.92
68580;BME280;55555;52.136;5.424;2022-07-06T02:40:36;102637.44;;;10.76;78.05
68580;BME280;55555;52.136;5.424;2022-07-06T02:43:04;102643.31;;;10.80;78.05
68580;BME280;55555;52.136;5.424;2022-07-06T02:45:32;102638.44;;;10.83;77.52
68580;BME280;55555;52.136;5.424;2022-07-06T02:47:59;102642.16;;;10.82;78.15
68580;BME280;55555;52.136;5.424;2022-07-06T02:50:26;102644.66;;;10.84;78.81
68580;BME280;55555;52.136;5.424;2022-07-06T02:52:53;102646.34;;;10.85;78.74
68580;BME280;55555;52.136;5.424;2022-07-06T02:55:21;102642.47;;;10.87;78.21
68580;BME280;55555;52.136;5.424;2022-07-06T02:57:48;102648.53;;;10.89;78.19
68580;BME280;55555;52.136;5.424;2022-07-06T03:00:15;102636.06;;;10.88;78.88
68580;BME280;55555;52.136;5.424;2022-07-06T03:02:42;102645.47;;;10.92;79.19
68580;BME280;55555;52.136;5.424;2022-07-06T03:05:10;102648.16;;;10.92;79.50
68580;BME280;55555;52.136;5.424;2022-07-06T03:07:37;102651.16;;;10.98;78.87
68580;BME280;55555;52.136;5.424;2022-07-06T03:10:04;102650.81;;;11.01;78.96
68580;BME280;55555;52.136;5.424;2022-07-06T03:12:31;102642.22;;;11.05;78.65
68580;BME280;55555;52.136;5.424;2022-07-06T03:14:58;102635.97;;;11.05;78.98
68580;BME280;55555;52.136;5.424;2022-07-06T03:17:25;102639.66;;;11.12;78.48
68580;BME280;55555;52.136;5.424;2022-07-06T03:19:52;102645.72;;;11.14;78.59
68580;BME280;55555;52.136;5.424;2022-07-06T03:22:19;102639.97;;;11.17;78.63
68580;BME280;55555;52.136;5.424;2022-07-06T03:24:46;102647.91;;;11.18;77.85
68580;BME280;55555;52.136;5.424;2022-07-06T03:27:13;102655.47;;;11.23;78.16
68580;BME280;55555;52.136;5.424;2022-07-06T03:29:41;102650.56;;;11.26;77.74
68580;BME280;55555;52.136;5.424;2022-07-06T03:32:08;102665.56;;;11.29;78.26
68580;BME280;55555;52.136;5.424;2022-07-06T03:34:35;102649.69;;;11.34;78.05
68580;BME280;55555;52.136;5.424;2022-07-06T03:37:02;102646.47;;;11.39;78.79
68580;BME280;55555;52.136;5.424;2022-07-06T03:39:29;102649.66;;;11.42;78.45
68580;BME280;55555;52.136;5.424;2022-07-06T03:41:56;102645.72;;;11.45;78.34
68580;BME280;55555;52.136;5.424;2022-07-06T03:44:23;102647.25;;;11.47;78.57
68580;BME280;55555;52.136;5.424;2022-07-06T03:46:50;102647.72;;;11.51;78.38
68580;BME280;55555;52.136;5.424;2022-07-06T03:49:19;102646.88;;;11.50;78.07
68580;BME280;55555;52.136;5.424;2022-07-06T03:51:46;102643.34;;;11.50;79.06
68580;BME280;55555;52.136;5.424;2022-07-06T03:54:13;102652.59;;;11.55;79.13
68580;BME280;55555;52.136;5.424;2022-07-06T03:56:39;102651.59;;;11.56;78.24
68580;BME280;55555;52.136;5.424;2022-07-06T03:59:06;102646.66;;;11.60;79.15
68580;BME280;55555;52.136;5.424;2022-07-06T04:01:33;102638.88;;;11.65;77.94
68580;BME280;55555;52.136;5.424;2022-07-06T04:04:00;102642.91;;;11.69;78.94
68580;BME280;55555;52.136;5.424;2022-07-06T04:06:27;102639.38;;;11.69;79.78
68580;BME280;55555;52.136;5.424;2022-07-06T04:08:54;102640.34;;;11.76;79.62
68580;BME280;55555;52.136;5.424;2022-07-06T04:11:21;102638.63;;;11.83;79.86
68580;BME280;55555;52.136;5.424;2022-07-06T04:13:48;102639.28;;;11.85;79.58
68580;BME280;55555;52.136;5.424;2022-07-06T04:16:15;102633.34;;;11.89;79.00
68580;BME280;55555;52.136;5.424;2022-07-06T04:18:42;102636.72;;;11.91;78.85
68580;BME280;55555;52.136;5.424;2022-07-06T04:21:10;102637.84;;;11.97;78.23
68580;BME280;55555;52.136;5.424;2022-07-06T04:23:37;102644.91;;;11.98;78.47
68580;BME280;55555;52.136;5.424;2022-07-06T04:26:04;102645.75;;;11.99;78.59
68580;BME280;55555;52.136;5.424;2022-07-06T04:28:31;102648.28;;;12.00;78.59
68580;BME280;55555;52.136;5.424;2022-07-06T04:30:58;102638.50;;;11.99;80.19
68580;BME280;55555;52.136;5.424;2022-07-06T04:33:24;102638.44;;;12.07;79.02
68580;BME280;55555;52.136;5.424;2022-07-06T04:35:51;102641.44;;;12.12;79.12
68580;BME280;55555;52.136;5.424;2022-07-06T04:38:18;102641.72;;;12.17;79.99
68580;BME280;55555;52.136;5.424;2022-07-06T04:40:46;102642.41;;;12.19;78.55
68580;BME280;55555;52.136;5.424;2022-07-06T04:43:13;102642.69;;;12.24;79.55
68580;BME280;55555;52.136;5.424;2022-07-06T04:45:40;102634.88;;;12.30;79.29
68580;BME280;55555;52.136;5.424;2022-07-06T04:48:07;102637.50;;;12.38;78.38
68580;BME280;55555;52.136;5.424;2022-07-06T04:50:34;102649.94;;;12.47;79.07
68580;BME280;55555;52.136;5.424;2022-07-06T04:53:06;102639.38;;;12.52;79.19
68580;BME280;55555;52.136;5.424;2022-07-06T04:55:33;102640.97;;;12.61;77.69
68580;BME280;55555;52.136;5.424;2022-07-06T04:58:00;102643.59;;;12.69;78.65
68580;BME280;55555;52.136;5.424;2022-07-06T05:00:27;102635.78;;;12.74;77.47
68580;BME280;55555;52.136;5.424;2022-07-06T05:02:54;102649.22;;;12.82;77.55
68580;BME280;55555;52.136;5.424;2022-07-06T05:05:21;102641.38;;;12.87;77.77
68580;BME280;55555;52.136;5.424;2022-07-06T05:07:49;102650.63;;;12.93;79.24
68580;BME280;55555;52.136;5.424;2022-07-06T05:10:16;102649.66;;;13.01;78.54
68580;BME280;55555;52.136;5.424;2022-07-06T05:12:42;102643.31;;;13.08;76.98
68580;BME280;55555;52.136;5.424;2022-07-06T05:15:10;102640.53;;;13.16;78.34
68580;BME280;55555;52.136;5.424;2022-07-06T05:17:37;102646.88;;;13.23;76.44
68580;BME280;55555;52.136;5.424;2022-07-06T05:20:05;102649.97;;;13.35;74.61
68580;BME280;55555;52.136;5.424;2022-07-06T05:22:33;102650.31;;;13.47;76.89
68580;BME280;55555;52.136;5.424;2022-07-06T05:25:00;102651.00;;;13.55;75.83
68580;BME280;55555;52.136;5.424;2022-07-06T05:27:27;102653.25;;;13.52;78.13
68580;BME280;55555;52.136;5.424;2022-07-06T05:29:54;102657.53;;;13.61;77.02
68580;BME280;55555;52.136;5.424;2022-07-06T05:32:21;102653.31;;;13.73;76.40
68580;BME280;55555;52.136;5.424;2022-07-06T05:34:50;102659.25;;;13.83;77.04
68580;BME280;55555;52.136;5.424;2022-07-06T05:37:17;102660.25;;;13.97;76.47
68580;BME280;55555;52.136;5.424;2022-07-06T05:39:44;102650.53;;;14.09;74.82
68580;BME280;55555;52.136;5.424;2022-07-06T05:42:13;102658.28;;;14.12;76.60
68580;BME280;55555;52.136;5.424;2022-07-06T05:44:40;102653.44;;;14.29;75.85
68580;BME280;55555;52.136;5.424;2022-07-06T05:47:07;102660.69;;;14.43;75.66
68580;BME280;55555;52.136;5.424;2022-07-06T05:49:53;102661.69;;;14.70;75.00
68580;BME280;55555;52.136;5.424;2022-07-06T05:52:39;102659.31;;;14.88;75.72
68580;BME280;55555;52.136;5.424;2022-07-06T05:55:21;102667.41;;;15.16;75.25
68580;BME280;55555;52.136;5.424;2022-07-06T05:57:48;102659.56;;;15.35;74.03
68580;BME280;55555;52.136;5.424;2022-07-06T06:00:16;102658.69;;;15.82;72.14
68580;BME280;55555;52.136;5.424;2022-07-06T06:02:43;102655.59;;;15.98;70.43
68580;BME280;55555;52.136;5.424;2022-07-06T06:05:10;102657.28;;;16.39;70.12
68580;BME280;55555;52.136;5.424;2022-07-06T06:07:39;102653.09;;;16.76;69.09
68580;BME280;55555;52.136;5.424;2022-07-06T06:10:09;102648.56;;;17.21;67.64
68580;BME280;55555;52.136;5.424;2022-07-06T06:12:38;102656.09;;;17.26;67.17
68580;BME280;55555;52.136;5.424;2022-07-06T06:15:06;102663.31;;;17.96;67.39
68580;BME280;55555;52.136;5.424;2022-07-06T06:17:38;102654.53;;;17.88;64.10
68580;BME280;55555;52.136;5.424;2022-07-06T06:20:07;102661.56;;;17.70;64.81
68580;BME280;55555;52.136;5.424;2022-07-06T06:22:52;102660.09;;;18.31;64.17
68580;BME280;55555;52.136;5.424;2022-07-06T06:25:32;102667.84;;;18.34;63.34
68580;BME280;55555;52.136;5.424;2022-07-06T06:28:05;102667.09;;;18.20;61.97
68580;BME280;55555;52.136;5.424;2022-07-06T06:30:34;102671.09;;;18.49;62.47
68580;BME280;55555;52.136;5.424;2022-07-06T06:33:12;102673.97;;;18.61;61.68
68580;BME280;55555;52.136;5.424;2022-07-06T06:35:49;102677.53;;;18.61;62.06
68580;BME280;55555;52.136;5.424;2022-07-06T06:38:18;102675.31;;;19.13;61.05
68580;BME280;55555;52.136;5.424;2022-07-06T06:40:47;102673.00;;;19.46;61.10
68580;BME280;55555;52.136;5.424;2022-07-06T06:43:15;102668.44;;;19.59;58.14
68580;BME280;55555;52.136;5.424;2022-07-06T06:45:42;102673.84;;;19.77;57.25
68580;BME280;55555;52.136;5.424;2022-07-06T06:48:11;102673.31;;;19.02;59.96
68580;BME280;55555;52.136;5.424;2022-07-06T06:50:43;102664.00;;;20.17;58.54
68580;BME280;55555;52.136;5.424;2022-07-06T06:53:10;102671.44;;;19.99;56.47
68580;BME280;55555;52.136;5.424;2022-07-06T06:55:37;102673.22;;;19.93;56.21
68580;BME280;55555;52.136;5.424;2022-07-06T06:58:04;102676.75;;;20.35;58.16
68580;BME280;55555;52.136;5.424;2022-07-06T07:00:31;102679.31;;;20.60;55.86
68580;BME280;55555;52.136;5.424;2022-07-06T07:02:58;102678.13;;;20.56;54.50
68580;BME280;55555;52.136;5.424;2022-07-06T07:05:25;102682.31;;;20.70;55.29
68580;BME280;55555;52.136;5.424;2022-07-06T07:07:53;102672.00;;;21.12;54.43
68580;BME280;55555;52.136;5.424;2022-07-06T07:10:29;102668.25;;;21.42;55.44
68580;BME280;55555;52.136;5.424;2022-07-06T07:12:56;102670.31;;;21.35;52.01
68580;BME280;55555;52.136;5.424;2022-07-06T07:15:23;102671.63;;;21.32;54.36
68580;BME280;55555;52.136;5.424;2022-07-06T07:17:50;102678.50;;;21.46;50.48
68580;BME280;55555;52.136;5.424;2022-07-06T07:20:17;102682.53;;;21.56;52.91
68580;BME280;55555;52.136;5.424;2022-07-06T07:22:44;102674.94;;;21.34;53.35
68580;BME280;55555;52.136;5.424;2022-07-06T07:25:11;102681.63;;;21.78;52.34
68580;BME280;55555;52.136;5.424;2022-07-06T07:27:38;102680.47;;;21.11;51.80
68580;BME280;55555;52.136;5.424;2022-07-06T07:30:05;102686.09;;;20.93;49.71
68580;BME280;55555;52.136;5.424;2022-07-06T07:32:32;102677.19;;;20.62;52.18
68580;BME280;55555;52.136;5.424;2022-07-06T07:35:00;102678.53;;;21.35;52.00
68580;BME280;55555;52.136;5.424;2022-07-06T07:37:27;102672.53;;;21.50;51.55
68580;BME280;55555;52.136;5.424;2022-07-06T07:39:54;102682.47;;;21.96;49.89
68580;BME280;55555;52.136;5.424;2022-07-06T07:42:21;102674.31;;;22.01;49.04
68580;BME280;55555;52.136;5.424;2022-07-06T07:44:48;102683.53;;;22.40;49.35
68580;BME280;55555;52.136;5.424;2022-07-06T07:47:15;102675.69;;;21.87;49.24
68580;BME280;55555;52.136;5.424;2022-07-06T07:49:42;102680.28;;;21.81;47.66
68580;BME280;55555;52.136;5.424;2022-07-06T07:52:10;102683.91;;;21.70;47.43
68580;BME280;55555;52.136;5.424;2022-07-06T07:54:37;102682.53;;;22.12;46.08
68580;BME280;55555;52.136;5.424;2022-07-06T07:57:12;102684.13;;;21.80;47.45
68580;BME280;55555;52.136;5.424;2022-07-06T07:59:39;102675.56;;;21.93;45.50
68580;BME280;55555;52.136;5.424;2022-07-06T08:02:06;102672.03;;;22.76;43.99
68580;BME280;55555;52.136;5.424;2022-07-06T08:04:33;102673.53;;;22.67;45.58
68580;BME280;55555;52.136;5.424;2022-07-06T08:07:00;102672.63;;;23.17;46.78
68580;BME280;55555;52.136;5.424;2022-07-06T08:09:27;102669.53;;;22.75;44.99
68580;BME280;55555;52.136;5.424;2022-07-06T08:11:54;102667.47;;;22.82;45.70
68580;BME280;55555;52.136;5.424;2022-07-06T08:14:21;102675.06;;;22.97;43.81
68580;BME280;55555;52.136;5.424;2022-07-06T08:16:48;102668.69;;;22.74;46.43
68580;BME280;55555;52.136;5.424;2022-07-06T08:19:15;102665.63;;;22.54;43.82
68580;BME280;55555;52.136;5.424;2022-07-06T08:21:42;102678.00;;;22.90;45.23
68580;BME280;55555;52.136;5.424;2022-07-06T08:24:10;102674.81;;;21.81;46.75
68580;BME280;55555;52.136;5.424;2022-07-06T08:26:38;102664.72;;;21.18;47.29
68580;BME280;55555;52.136;5.424;2022-07-06T08:29:05;102664.47;;;22.17;47.42
68580;BME280;55555;52.136;5.424;2022-07-06T08:31:32;102668.88;;;22.18;47.01
68580;BME280;55555;52.136;5.424;2022-07-06T08:34:20;102667.88;;;22.40;49.04
68580;BME280;55555;52.136;5.424;2022-07-06T08:36:48;102665.88;;;22.53;45.64
68580;BME280;55555;52.136;5.424;2022-07-06T08:39:16;102664.22;;;22.01;44.10
68580;BME280;55555;52.136;5.424;2022-07-06T08:41:43;102663.00;;;21.80;46.77
68580;BME280;55555;52.136;5.424;2022-07-06T08:44:15;102665.47;;;21.25;47.56
68580;BME280;55555;52.136;5.424;2022-07-06T08:46:43;102660.44;;;21.62;45.70
68580;BME280;55555;52.136;5.424;2022-07-06T08:49:16;102663.06;;;21.17;46.79
68580;BME280;55555;52.136;5.424;2022-07-06T08:51:45;102660.22;;;21.00;48.04
68580;BME280;55555;52.136;5.424;2022-07-06T08:54:12;102659.19;;;21.41;46.43
68580;BME280;55555;52.136;5.424;2022-07-06T08:56:39;102657.47;;;21.12;44.28
68580;BME280;55555;52.136;5.424;2022-07-06T08:59:14;102666.06;;;20.80;49.00
68580;BME280;55555;52.136;5.424;2022-07-06T09:01:42;102660.69;;;21.09;46.42
68580;BME280;55555;52.136;5.424;2022-07-06T09:04:12;102658.22;;;21.47;47.70
68580;BME280;55555;52.136;5.424;2022-07-06T09:06:45;102660.22;;;22.09;48.85
68580;BME280;55555;52.136;5.424;2022-07-06T09:09:19;102667.75;;;22.30;48.57
68580;BME280;55555;52.136;5.424;2022-07-06T09:11:50;102673.03;;;22.37;44.97
68580;BME280;55555;52.136;5.424;2022-07-06T09:14:18;102661.38;;;22.63;48.20
68580;BME280;55555;52.136;5.424;2022-07-06T09:16:49;102656.97;;;22.79;47.92
68580;BME280;55555;52.136;5.424;2022-07-06T09:19:18;102660.66;;;22.18;48.36
68580;BME280;55555;52.136;5.424;2022-07-06T09:21:45;102665.25;;;22.29;46.40
68580;BME280;55555;52.136;5.424;2022-07-06T09:24:13;102666.44;;;22.88;46.03
68580;BME280;55555;52.136;5.424;2022-07-06T09:26:40;102662.38;;;22.57;47.47
68580;BME280;55555;52.136;5.424;2022-07-06T09:29:08;102654.66;;;22.37;44.57
68580;BME280;55555;52.136;5.424;2022-07-06T09:31:35;102663.22;;;22.07;49.00
68580;BME280;55555;52.136;5.424;2022-07-06T09:34:05;102667.47;;;22.49;47.27
68580;BME280;55555;52.136;5.424;2022-07-06T09:36:48;102668.97;;;22.56;45.80
68580;BME280;55555;52.136;5.424;2022-07-06T09:39:16;102676.38;;;22.39;46.36
68580;BME280;55555;52.136;5.424;2022-07-06T09:41:52;102665.22;;;22.45;46.43
68580;BME280;55555;52.136;5.424;2022-07-06T09:44:25;102668.69;;;21.22;48.35
68580;BME280;55555;52.136;5.424;2022-07-06T09:46:58;102658.25;;;21.76;46.47
68580;BME280;55555;52.136;5.424;2022-07-06T09:49:28;102668.63;;;21.74;47.39
68580;BME280;55555;52.136;5.424;2022-07-06T09:51:57;102678.59;;;21.52;47.72
68580;BME280;55555;52.136;5.424;2022-07-06T09:54:25;102669.16;;;21.31;48.40
68580;BME280;55555;52.136;5.424;2022-07-06T09:56:54;102668.63;;;21.34;48.65
68580;BME280;55555;52.136;5.424;2022-07-06T09:59:24;102676.22;;;20.68;48.01
68580;BME280;55555;52.136;5.424;2022-07-06T10:01:57;102682.63;;;20.86;48.27
68580;BME280;55555;52.136;5.424;2022-07-06T10:04:26;102685.53;;;21.42;47.73
68580;BME280;55555;52.136;5.424;2022-07-06T10:06:55;102679.81;;;21.44;48.72
68580;BME280;55555;52.136;5.424;2022-07-06T10:09:25;102668.91;;;21.61;45.38
68580;BME280;55555;52.136;5.424;2022-07-06T10:11:59;102677.13;;;21.89;46.68
68580;BME280;55555;52.136;5.424;2022-07-06T10:14:32;102677.81;;;21.96;44.52
68580;BME280;55555;52.136;5.424;2022-07-06T10:17:01;102678.47;;;22.15;48.57
68580;BME280;55555;52.136;5.424;2022-07-06T10:19:32;102671.22;;;21.80;45.73
68580;BME280;55555;52.136;5.424;2022-07-06T10:22:00;102664.97;;;22.13;45.84
68580;BME280;55555;52.136;5.424;2022-07-06T10:24:29;102674.31;;;22.29;49.02
68580;BME280;55555;52.136;5.424;2022-07-06T10:26:57;102665.06;;;22.52;45.71
68580;BME280;55555;52.136;5.424;2022-07-06T10:29:24;102660.81;;;23.00;46.14
68580;BME280;55555;52.136;5.424;2022-07-06T10:31:53;102663.06;;;23.03;46.60
68580;BME280;55555;52.136;5.424;2022-07-06T10:34:21;102665.13;;;23.34;44.31
68580;BME280;55555;52.136;5.424;2022-07-06T10:36:50;102665.59;;;22.88;46.76
68580;BME280;55555;52.136;5.424;2022-07-06T10:39:36;102654.25;;;23.66;41.09
68580;BME280;55555;52.136;5.424;2022-07-06T10:50:47;102648.97;;;24.56;44.34
68580;BME280;55555;52.136;5.424;2022-07-06T10:53:30;102652.34;;;24.63;43.13
68580;BME280;55555;52.136;5.424;2022-07-06T10:56:05;102640.91;;;24.44;43.47
68580;BME280;55555;52.136;5.424;2022-07-06T10:58:47;102640.34;;;24.42;40.23
68580;BME280;55555;52.136;5.424;2022-07-06T11:01:18;102647.53;;;24.48;39.96
68580;BME280;55555;52.136;5.424;2022-07-06T11:06:24;102634.13;;;24.62;41.76
68580;BME280;55555;52.136;5.424;2022-07-06T11:08:59;102636.75;;;24.09;39.05
68580;BME280;55555;52.136;5.424;2022-07-06T11:14:02;102625.25;;;24.18;38.21
68580;BME280;55555;52.136;5.424;2022-07-06T11:19:22;102625.81;;;24.20;41.60
68580;BME280;55555;52.136;5.424;2022-07-06T11:21:55;102625.72;;;23.29;43.97
68580;BME280;55555;52.136;5.424;2022-07-06T11:24:35;102617.88;;;23.42;41.66
68580;BME280;55555;52.136;5.424;2022-07-06T11:27:04;102622.03;;;23.67;44.64
68580;BME280;55555;52.136;5.424;2022-07-06T11:29:33;102619.47;;;23.11;42.43
68580;BME280;55555;52.136;5.424;2022-07-06T11:32:03;102607.59;;;23.55;40.85
68580;BME280;55555;52.136;5.424;2022-07-06T11:34:33;102613.72;;;23.13;41.50
68580;BME280;55555;52.136;5.424;2022-07-06T11:37:05;102610.97;;;22.74;42.78
68580;BME280;55555;52.136;5.424;2022-07-06T11:39:39;102604.25;;;23.04;42.87
68580;BME280;55555;52.136;5.424;2022-07-06T11:42:09;102585.94;;;23.15;45.51
68580;BME280;55555;52.136;5.424;2022-07-06T11:44:39;102582.13;;;23.16;44.51
68580;BME280;55555;52.136;5.424;2022-07-06T11:47:08;102588.25;;;23.50;43.22
68580;BME280;55555;52.136;5.424;2022-07-06T11:49:37;102574.81;;;23.26;40.50
68580;BME280;55555;52.136;5.424;2022-07-06T11:52:08;102576.28;;;23.34;40.70
68580;BME280;55555;52.136;5.424;2022-07-06T11:54:38;102584.34;;;22.97;40.77
68580;BME280;55555;52.136;5.424;2022-07-06T11:57:08;102581.72;;;23.07;41.47
68580;BME280;55555;52.136;5.424;2022-07-06T11:59:38;102579.28;;;23.32;40.97
68580;BME280;55555;52.136;5.424;2022-07-06T12:02:10;102576.84;;;23.63;42.45
68580;BME280;55555;52.136;5.424;2022-07-06T12:04:40;102578.19;;;23.87;42.02
68580;BME280;55555;52.136;5.424;2022-07-06T12:07:13;102567.28;;;24.02;39.78
68580;BME280;55555;52.136;5.424;2022-07-06T12:09:43;102582.94;;;23.97;40.46
68580;BME280;55555;52.136;5.424;2022-07-06T12:12:11;102576.03;;;23.35;41.88
68580;BME280;55555;52.136;5.424;2022-07-06T12:14:40;102578.78;;;23.40;43.03
68580;BME280;55555;52.136;5.424;2022-07-06T12:17:09;102578.25;;;23.97;42.26
68580;BME280;55555;52.136;5.424;2022-07-06T12:19:38;102580.69;;;23.35;41.75
68580;BME280;55555;52.136;5.424;2022-07-06T12:22:07;102575.25;;;22.74;42.70
68580;BME280;55555;52.136;5.424;2022-07-06T12:24:36;102566.88;;;23.30;44.14
68580;BME280;55555;52.136;5.424;2022-07-06T12:27:11;102572.97;;;23.10;41.08
68580;BME280;55555;52.136;5.424;2022-07-06T12:29:42;102570.94;;;22.78;41.11
68580;BME280;55555;52.136;5.424;2022-07-06T12:32:30;102563.34;;;23.34;43.08
68580;BME280;55555;52.136;5.424;2022-07-06T12:35:08;102561.31;;;23.52;43.90
68580;BME280;55555;52.136;5.424;2022-07-06T12:37:35;102560.38;;;23.41;40.37
68580;BME280;55555;52.136;5.424;2022-07-06T12:40:12;102551.59;;;23.44;39.07
68580;BME280;55555;52.136;5.424;2022-07-06T12:42:46;102563.13;;;23.41;41.81
68580;BME280;55555;52.136;5.424;2022-07-06T12:45:14;102561.25;;;23.20;40.90
68580;BME280;55555;52.136;5.424;2022-07-06T12:47:56;102554.22;;;23.29;42.79
68580;BME280;55555;52.136;5.424;2022-07-06T12:50:32;102561.97;;;23.10;43.96
68580;BME280;55555;52.136;5.424;2022-07-06T12:53:01;102559.91;;;23.22;42.71
68580;BME280;55555;52.136;5.424;2022-07-06T12:55:29;102549.50;;;23.24;40.79
68580;BME280;55555;52.136;5.424;2022-07-06T12:57:57;102545.06;;;23.50;41.51
68580;BME280;55555;52.136;5.424;2022-07-06T13:00:25;102555.03;;;23.29;45.03
68580;BME280;55555;52.136;5.424;2022-07-06T13:02:53;102554.66;;;23.48;41.60
68580;BME280;55555;52.136;5.424;2022-07-06T13:05:36;102545.94;;;23.83;42.47
68580;BME280;55555;52.136;5.424;2022-07-06T13:08:05;102550.53;;;23.72;41.38
68580;BME280;55555;52.136;5.424;2022-07-06T13:10:32;102540.38;;;23.51;40.51
68580;BME280;55555;52.136;5.424;2022-07-06T13:13:01;102541.72;;;23.48;43.11
68580;BME280;55555;52.136;5.424;2022-07-06T13:15:28;102536.34;;;23.85;41.64